METAR Data
IDs: Format: Raw Decoded Include TAF

Data at: 2101 UTC 19 May 2019

PAOM 192053Z 33010KT 10SM CLR 07/01 A2985 RMK AO2 SLP109 T00720011 58003
PAOM 191953Z 31008KT 10SM SCT030 07/01 A2986 RMK AO2 SLP111 T00720011
PAOM 191853Z 34006KT 10SM CLR 06/01 A2986 RMK AO2 SLP111 T00610006
PAOM 191753Z 33007KT 10SM SCT026 06/01 A2986 RMK AO2 SLP112 T00610011 10061 20022 53003
PAOM 191653Z 34006KT 10SM BKN027 05/02 A2986 RMK AO2 SLP110 T00500022
PAOM 191553Z 35004KT 10SM OVC027 03/02 A2985 RMK AO2 SLP108 T00330022
PAOM 191453Z AUTO 34003KT 10SM OVC027 03/02 A2985 RMK AO2 SLP109 T00280022 50003 TSNO
PAOM 191353Z AUTO 28003KT 10SM BKN018 OVC024 02/02 A2985 RMK AO2 SLP109 T00220017 TSNO
PAOM 191253Z AUTO 27004KT 10SM OVC024 02/02 A2985 RMK AO2 SLP108 T00220017 TSNO
PAOM 191153Z AUTO 07004KT 10SM OVC023 03/02 A2984 RMK AO2 SLP106 70002 T00280022 10033 20022 50005 TSNO
PAOM 191053Z AUTO 00000KT 10SM OVC020 03/02 A2984 RMK AO2 SLP106 T00280022 TSNO
PAOM 190953Z AUTO 00000KT 9SM SCT011 BKN017 OVC024 03/03 A2984 RMK AO2 SLP103 T00280028 TSNO
PAOM 190853Z AUTO 09006KT 10SM BKN015 OVC022 03/02 A2983 RMK AO2 SLP101 T00280022 400610017 53010 TSNO
PAOM 190753Z AUTO 09004KT 10SM FEW006 OVC024 02/02 A2982 RMK AO2 SLP098 T00220022 TSNO
PAOM 190713Z AUTO 13004KT 10SM SCT007 SCT015 OVC024 03/02 A2981 RMK AO2 T00280017 TSNO
PAOM 190653Z AUTO 16004KT 9SM BKN007 OVC016 03/02 A2981 RMK AO2 SLP093 T00280017 TSNO
PAOM 190618Z 17005KT 10SM BKN007 OVC019 03/02 A2980 RMK AO2 T00280022
PAOM 190611Z 17005KT 10SM SCT007 OVC020 03/02 A2980 RMK AO2 T00280017
PAOM 190553Z 17007KT 10SM BKN006 OVC020 03/02 A2980 RMK SLP091 T00280022 10044 20028 53009 VIA AUTODIAL
PAOM 190537Z 18006KT 10SM BKN007 OVC019 03/02 A2980 RMK AO2 T00280022
PAOM 190453Z 16006KT 10SM SCT005 BKN022 OVC036 03/02 A2979 RMK AO2 CIG 007 NE SLP086 T00280022
PAOM 190353Z 18008KT 10SM BKN007 OVC030 04/03 A2978 RMK AO2 SLP084 T00390028
PAOM 190305Z 16008KT 10SM BKN006 BKN012 OVC037 03/03 A2977 RMK AO2 T00330033
PAOM 190253Z 16007KT 3SM BR SCT005 BKN024 OVC036 03/03 A2977 RMK AO2 SLP082 T00330028 53006
PAOM 190236Z 15007KT 10SM SCT005 BKN024 OVC037 04/04 A2977 RMK AO2 T00390039
PAOM 190153Z 14012KT 10SM OVC006 04/03 A2976 RMK AO2 SLP078 T00390033
PAOM 190053Z 13013KT 10SM BKN009 OVC035 04/03 A2975 RMK AO2 SLP076 T00440033
PAOM 182353Z 12011KT 6SM BR OVC005 03/03 A2975 RMK AO2 SLP075 60002 T00330033 10033 20017 51011
PAOM 182322Z 13010KT 6SM BR OVC005 03/03 A2975 RMK AO2 T00280028
PAOM 182302Z 14009KT 3SM BR OVC004 03/03 A2975 RMK AO2 T00280028
PAOM 182253Z 15009KT 3SM BR OVC005 03/03 A2975 RMK AO2 SLP074 T00280028
PAOM 182224Z 14008KT 1 1/2SM R28/5500VP6000FT BR OVC004 03/03 A2975 RMK AO2 T00280028
PAOM 182203Z 14008KT 1 3/4SM R28/5500VP6000FT BR OVC005 02/02 A2974 RMK AO2 T00220022
PAOM 182153Z 14009KT 5SM BR OVC006 02/02 A2974 RMK AO2 SLP070 T00220017
PAOM 182053Z 15009KT 10SM BKN008 OVC015 02/02 A2972 RMK AO2 SLP065 60002 T00220017 51021
PAOM 181953Z 17008KT 10SM OVC006 02/02 A2971 RMK AO2 RAE10 SLP059 P0000 T00220017
PAOM 181900Z 18009KT 10SM -RA OVC005 02/02 A2969 RMK AO2 P0000 T00220022
PAOM 181853Z 17009KT 8SM -RA OVC004 03/03 A2968 RMK AO2 SLP052 P0002 T00280028
PAOM 181822Z 16007KT 4SM -RA BR OVC004 03/03 A2967 RMK AO2 P0001 T00330033
PAOM 181811Z 17006KT 2SM R28/5000VP6000FT -RA BR OVC003 03/03 A2966 RMK AO2 P0001 T00280028
PAOM 181753Z 16005KT 1SM R28/5500VP6000FT -RA BR OVC003 03/03 A2966 RMK RAB47 SLP043 P0000 60000 T00330033 10050 20028 53015 VIA AUTODIAL
PAOM 181734Z 16005KT 1SM R28/5500VP6000FT BR OVC004 03/03 A2965 RMK AO2 T00330033
PAOM 181716Z 16005KT 1 3/4SM R28/6000VP6000FT BR BKN005 OVC009 04/04 A2965 RMK AO2 T00390039
PAOM 181708Z 16008KT 4SM BR SCT009 OVC018 04/04 A2965 RMK AO2 T00390039
PAOM 181653Z 15007KT 10SM BKN011 OVC019 04/04 A2964 RMK AO2 SLP038 T00440039
PAOM 181623Z 13008KT 10SM BKN024 OVC065 04/04 A2964 RMK AO2 T00440044
PAOM 181609Z 11006KT 10SM FEW009 OVC065 04/04 A2963 RMK AO2 T00440039
PAOM 181553Z 10008KT 10SM SCT010 OVC060 04/04 A2963 RMK AO2 CIG 024 NE SLP034 T00390039
PAOM 181528Z 08009KT 10SM FEW017 OVC055 04/03 A2962 RMK AO2 CIG 024 NE T00390028
PAOM 181453Z AUTO 10006KT 10SM SCT018 OVC025 03/03 A2962 RMK AO2 CIG 019 NE SLP029 T00330033 51014 TSNO
PAOM 181353Z AUTO 08008KT 10SM OVC027 03/03 A2960 RMK AO2 SLP025 T00330033 TSNO
PAOM 181337Z AUTO 08010KT 10SM SCT003 BKN028 03/03 A2960 RMK AO2 T00280028 TSNO
PAOM 181330Z AUTO 08009KT 10SM BKN003 BKN028 03/03 A2960 RMK AO2 T00280028 TSNO
PAOM 181323Z AUTO 08008KT 2 1/2SM R28/4500VP6000FT BR BKN003 03/03 A2960 RMK AO2 T00280028 TSNO
PAOM 181314Z AUTO 08008KT 3/4SM R28/3500V4500FT BR VV002 03/03 A2960 RMK AO2 T00280028 TSNO
PAOM 181306Z AUTO 08008KT 1/2SM R28/3000V4000FT FG BKN002 OVC008 03/03 A2960 RMK AO2 T00280028 TSNO
PAOM 181257Z AUTO 08007KT 1 3/4SM R28/4000VP6000FT BR BKN001 OVC008 03/03 A2959 RMK AO2 T00330033 TSNO
PAOM 181253Z AUTO 08007KT 4SM BR SCT001 BKN008 03/03 A2959 RMK AO2 CIG 002 NE SLP021 T00330033 TSNO
PAOM 181246Z AUTO 08007KT 10SM FEW001 BKN008 BKN060 03/03 A2959 RMK AO2 T00330033 TSNO
PAOM 181221Z AUTO 09007KT 10SM SCT001 BKN060 03/03 A2958 RMK AO2 CIG 002 NE T00330033 TSNO
PAOM 181153Z AUTO 08011KT 10SM OVC002 04/04 A2957 RMK AO2 SLP015 T00390039 10078 20033 51007 TSNO
PAOM 181142Z AUTO 09010KT 10SM OVC002 04/04 A2957 RMK AO2 T00390039 TSNO
PAOM 181135Z AUTO 09011KT 10SM OVC003 04/04 A2957 RMK AO2 T00440044 TSNO
PAOM 181048Z AUTO 07012KT 4SM BR BKN002 OVC006 04/04 A2957 RMK AO2 SLP013 T00440039 TSNO
PAOM 181047Z AUTO 07011KT 5SM BR BKN002 OVC006 04/04 A2957 RMK AO2 TSNO
PAOM 181034Z AUTO 07010KT 10SM BKN006 04/03 A2957 RMK AO2 T00440033 TSNO
PAOM 180953Z AUTO 11006KT 10SM SCT005 BKN013 OVC020 04/03 A2956 RMK AO2 SLP010 T00440028 TSNO
PAOM 180945Z AUTO 11005KT 10SM BKN005 BKN014 OVC021 05/03 A2956 RMK AO2 T00500028 TSNO
PAOM 180937Z AUTO 09004KT 10SM SCT005 OVC021 05/02 A2956 RMK AO2 T00500022 TSNO
PAOM 180910Z AUTO 05004KT 10SM BKN024 06/02 A2956 RMK AO2 T00560017 TSNO
PAOM 180903Z AUTO 08003KT 10SM SCT024 06/02 A2956 RMK AO2 T00610017 TSNO